Time;durP1;ratioP1;P1;durP2;ratioP2;P2;SDS_P1;SDS_P2;PMS_P1;PMS_P2;Temp;Humidity;BMP_temperature;BMP_pressure;BME280_temperature;BME280_humidity;BME280_pressure;Samples;Min_cycle;Max_cycle;Signal;HPM_P1;HPM_P2
2023/01/06 00:01:04;;;;;;;;;;;10.00;99.90;;;;;;5074334;28;19921;-62
2023/01/06 00:03:30;;;;;;;;;;;10.00;99.90;;;;;;5074419;28;19924;-62
2023/01/06 00:05:57;;;;;;;;;;;9.90;99.90;;;;;;5073513;28;20341;-61
2023/01/06 00:08:25;;;;;;;;;;;9.90;99.90;;;;;;5074246;28;20031;-62
2023/01/06 00:10:52;;;;;;;;;;;9.90;99.90;;;;;;5074353;28;20286;-62
2023/01/06 00:13:18;;;;;;;;;;;9.90;99.90;;;;;;5074038;28;19921;-62
2023/01/06 00:15:45;;;;;;;;;;;9.90;99.90;;;;;;5074306;28;19921;-62
2023/01/06 00:18:11;;;;;;;;;;;9.90;99.90;;;;;;5073690;28;19924;-62
2023/01/06 00:20:38;;;;;;;;;;;9.80;99.90;;;;;;5073664;28;19974;-62
2023/01/06 00:23:05;;;;;;;;;;;9.80;99.90;;;;;;5066449;28;19947;-62
2023/01/06 00:25:32;;;;;;;;;;;9.80;99.90;;;;;;5062277;28;19932;-62
2023/01/06 00:27:59;;;;;;;;;;;9.80;99.90;;;;;;5053749;28;20406;-62
2023/01/06 00:30:25;;;;;;;;;;;9.80;99.90;;;;;;5053925;28;19921;-61
2023/01/06 00:32:52;;;;;;;;;;;9.80;99.90;;;;;;5053904;28;19921;-60
2023/01/06 00:35:19;;;;;;;;;;;9.80;99.90;;;;;;5054153;28;20342;-62
2023/01/06 00:37:45;;;;;;;;;;;9.80;99.90;;;;;;5054046;28;19975;-62
2023/01/06 00:40:12;;;;;;;;;;;9.80;99.90;;;;;;5054406;28;19921;-62
2023/01/06 00:42:40;;;;;;;;;;;9.90;99.90;;;;;;5054287;28;19924;-62
2023/01/06 00:45:07;;;;;;;;;;;9.90;99.90;;;;;;5054024;28;19927;-62
2023/01/06 00:47:33;;;;;;;;;;;9.90;99.90;;;;;;5053728;28;19920;-60
2023/01/06 00:50:00;;;;;;;;;;;9.90;99.90;;;;;;5053682;28;19929;-62
2023/01/06 00:52:26;;;;;;;;;;;9.90;99.90;;;;;;5055997;28;19921;-62
2023/01/06 00:54:53;;;;;;;;;;;9.90;99.90;;;;;;5065398;28;19921;-62
2023/01/06 00:57:19;;;;;;;;;;;9.90;99.90;;;;;;5073476;28;19920;-62
2023/01/06 00:59:47;;;;;;;;;;;9.90;99.90;;;;;;5073287;28;19973;-61
2023/01/06 01:02:14;;;;;;;;;;;9.90;99.90;;;;;;5073274;28;19924;-62
2023/01/06 01:04:40;;;;;;;;;;;9.90;99.90;;;;;;5073515;28;20358;-62
2023/01/06 01:07:07;;;;;;;;;;;9.90;99.90;;;;;;5073193;28;19946;-62
2023/01/06 01:09:33;;;;;;;;;;;9.90;99.90;;;;;;5073140;28;20401;-61
2023/01/06 01:12:12;;;;;;;;;;;9.90;99.90;;;;;;5073262;28;19925;-61
2023/01/06 01:14:41;;;;;;;;;;;9.90;99.90;;;;;;5073124;28;20429;-61
2023/01/06 01:17:09;;;;;;;;;;;9.90;99.90;;;;;;5073023;28;19921;-59
2023/01/06 01:19:36;;;;;;;;;;;9.90;99.90;;;;;;5072913;28;20295;-61
2023/01/06 01:22:02;;;;;;;;;;;9.90;99.90;;;;;;5073059;28;19924;-62
2023/01/06 01:24:29;;;;;;;;;;;9.90;99.90;;;;;;5061486;28;21164;-62
2023/01/06 01:26:56;;;;;;;;;;;9.90;99.90;;;;;;5052778;28;20438;-62
2023/01/06 01:29:22;;;;;;;;;;;9.90;99.90;;;;;;5052935;28;19948;-62
2023/01/06 01:31:49;;;;;;;;;;;9.90;99.90;;;;;;5052899;28;20516;-62
2023/01/06 01:34:17;;;;;;;;;;;9.90;99.90;;;;;;5052932;28;19920;-61
2023/01/06 01:36:44;;;;;;;;;;;9.90;99.90;;;;;;5052640;28;19925;-62
2023/01/06 01:39:12;;;;;;;;;;;9.90;99.90;;;;;;5052722;28;19921;-62
2023/01/06 01:41:38;;;;;;;;;;;9.80;99.90;;;;;;5052686;28;20273;-58
2023/01/06 01:44:20;;;;;;;;;;;9.80;99.90;;;;;;5053102;28;19920;-61
2023/01/06 01:46:46;;;;;;;;;;;9.90;99.90;;;;;;5052286;28;19920;-61
2023/01/06 01:49:14;;;;;;;;;;;9.80;99.90;;;;;;5052581;28;19924;-58
2023/01/06 01:51:43;;;;;;;;;;;9.80;99.90;;;;;;5052412;28;19920;-61
2023/01/06 01:54:11;;;;;;;;;;;9.90;99.90;;;;;;5060504;28;19924;-59
2023/01/06 01:56:41;;;;;;;;;;;9.90;99.90;;;;;;5072515;28;20377;-60
2023/01/06 01:59:10;;;;;;;;;;;9.80;99.90;;;;;;5072143;28;19924;-60
2023/01/06 02:01:36;;;;;;;;;;;9.80;99.90;;;;;;5072440;28;19920;-61
2023/01/06 02:04:03;;;;;;;;;;;9.80;99.90;;;;;;5072674;28;20370;-60
2023/01/06 02:06:30;;;;;;;;;;;9.80;99.90;;;;;;5072235;28;19932;-61
2023/01/06 02:09:01;;;;;;;;;;;9.80;99.90;;;;;;5072917;28;20454;-61
2023/01/06 02:11:29;;;;;;;;;;;9.80;99.90;;;;;;5072702;28;19920;-61
2023/01/06 02:13:59;;;;;;;;;;;9.70;99.90;;;;;;5072508;28;19920;-61
2023/01/06 02:16:29;;;;;;;;;;;9.80;99.90;;;;;;5072065;28;19921;-61
2023/01/06 02:18:59;;;;;;;;;;;9.70;99.90;;;;;;5072123;28;20054;-61
2023/01/06 02:21:32;;;;;;;;;;;9.80;99.90;;;;;;5072344;28;19920;-61
2023/01/06 02:24:21;;;;;;;;;;;9.80;99.90;;;;;;5063930;28;20379;-61
2023/01/06 02:27:03;;;;;;;;;;;9.80;99.90;;;;;;5032100;28;20372;-61
2023/01/06 02:29:44;;;;;;;;;;;9.80;99.90;;;;;;5032045;28;20368;-61
2023/01/06 02:32:21;;;;;;;;;;;9.80;99.90;;;;;;5032370;28;20346;-61
2023/01/06 02:34:49;;;;;;;;;;;9.80;99.90;;;;;;5032176;28;19921;-61
2023/01/06 02:37:26;;;;;;;;;;;9.80;99.90;;;;;;5031970;28;19921;-61
2023/01/06 02:40:02;;;;;;;;;;;9.80;99.90;;;;;;5031505;28;19979;-61
2023/01/06 02:42:32;;;;;;;;;;;9.80;99.90;;;;;;5032337;28;19921;-61
2023/01/06 02:45:02;;;;;;;;;;;9.80;99.90;;;;;;5032138;28;20006;-61
2023/01/06 02:47:32;;;;;;;;;;;9.80;99.90;;;;;;5031860;28;19967;-61
2023/01/06 02:50:04;;;;;;;;;;;9.90;99.90;;;;;;5032067;28;19925;-61
2023/01/06 02:52:33;;;;;;;;;;;9.80;99.90;;;;;;5037589;28;19953;-61
2023/01/06 02:55:02;;;;;;;;;;;9.80;99.90;;;;;;5063847;28;19920;-61
2023/01/06 02:57:33;;;;;;;;;;;9.90;99.90;;;;;;5071765;28;19920;-61
2023/01/06 03:00:03;;;;;;;;;;;9.80;99.90;;;;;;5071754;28;20436;-60
2023/01/06 03:02:31;;;;;;;;;;;9.80;99.90;;;;;;5071735;28;19927;-61
2023/01/06 03:05:01;;;;;;;;;;;9.90;99.90;;;;;;5071777;28;20299;-61
2023/01/06 03:07:28;;;;;;;;;;;9.90;99.90;;;;;;5071462;28;19973;-61
2023/01/06 03:09:55;;;;;;;;;;;9.90;99.90;;;;;;5071741;28;19951;-61
2023/01/06 03:12:25;;;;;;;;;;;9.90;99.90;;;;;;5074476;28;19924;-61
2023/01/06 03:14:52;;;;;;;;;;;9.90;99.90;;;;;;5075547;28;19920;-61
2023/01/06 03:17:19;;;;;;;;;;;9.90;99.90;;;;;;5075020;28;19966;-61
2023/01/06 03:19:45;;;;;;;;;;;9.90;99.90;;;;;;5075224;28;19924;-61
2023/01/06 03:22:14;;;;;;;;;;;9.90;99.90;;;;;;5074698;28;19927;-61
2023/01/06 03:24:41;;;;;;;;;;;9.80;99.90;;;;;;5063453;28;20350;-61
2023/01/06 03:27:08;;;;;;;;;;;9.90;99.90;;;;;;5055102;28;19966;-61
2023/01/06 03:29:35;;;;;;;;;;;9.80;99.90;;;;;;5055191;28;20008;-59
2023/01/06 03:32:03;;;;;;;;;;;9.80;99.90;;;;;;5054680;28;19974;-62
2023/01/06 03:34:38;;;;;;;;;;;9.80;99.90;;;;;;5055421;28;19921;-61
2023/01/06 03:37:10;;;;;;;;;;;9.80;99.90;;;;;;5055080;28;19920;-61
2023/01/06 03:39:43;;;;;;;;;;;9.80;99.90;;;;;;5055013;28;19928;-61
2023/01/06 03:45:05;;;;;;;;;;;9.80;99.90;;;;;;5055111;28;19924;-62
2023/01/06 03:47:39;;;;;;;;;;;9.80;99.90;;;;;;5054626;28;20439;-62
2023/01/06 03:50:09;;;;;;;;;;;9.70;99.90;;;;;;5055036;28;19921;-59
2023/01/06 03:52:39;;;;;;;;;;;9.70;99.90;;;;;;5058587;28;20280;-62
2023/01/06 03:55:08;;;;;;;;;;;9.70;99.90;;;;;;5066703;28;20313;-62
2023/01/06 03:57:37;;;;;;;;;;;9.80;99.90;;;;;;5074612;28;19920;-62
2023/01/06 04:00:06;;;;;;;;;;;9.80;99.90;;;;;;5074659;28;19924;-62
2023/01/06 04:02:33;;;;;;;;;;;9.80;99.90;;;;;;5074570;28;19920;-62
2023/01/06 04:05:00;;;;;;;;;;;9.80;99.90;;;;;;5074764;28;19928;-62
2023/01/06 04:07:27;;;;;;;;;;;9.70;99.90;;;;;;5074272;28;20297;-62
2023/01/06 04:09:53;;;;;;;;;;;9.70;99.90;;;;;;5074621;28;19924;-62
2023/01/06 04:12:39;;;;;;;;;;;9.70;99.90;;;;;;5074560;28;19920;-61
2023/01/06 04:15:07;;;;;;;;;;;9.70;99.90;;;;;;5074580;28;19920;-62
2023/01/06 04:17:33;;;;;;;;;;;9.80;99.90;;;;;;5074193;28;19924;-62
2023/01/06 04:20:00;;;;;;;;;;;9.70;99.90;;;;;;5074208;28;20333;-60
2023/01/06 04:22:27;;;;;;;;;;;9.70;99.90;;;;;;5071628;28;20153;-61
2023/01/06 04:24:53;;;;;;;;;;;9.80;99.90;;;;;;5062599;28;20350;-61
2023/01/06 04:27:21;;;;;;;;;;;9.70;99.90;;;;;;5053974;28;19927;-60
2023/01/06 04:29:48;;;;;;;;;;;9.70;99.90;;;;;;5054206;28;19921;-62
2023/01/06 04:32:14;;;;;;;;;;;9.80;99.90;;;;;;5053796;28;19920;-62
2023/01/06 04:34:41;;;;;;;;;;;9.80;99.90;;;;;;5053977;28;19921;-62
2023/01/06 04:37:07;;;;;;;;;;;9.80;99.90;;;;;;5053872;28;19924;-62
2023/01/06 04:39:34;;;;;;;;;;;9.70;99.90;;;;;;5054382;28;19971;-61
2023/01/06 04:42:00;;;;;;;;;;;9.80;99.90;;;;;;5054178;28;19970;-61
2023/01/06 04:44:28;;;;;;;;;;;9.70;99.90;;;;;;5054131;28;19928;-62
2023/01/06 04:46:55;;;;;;;;;;;9.70;99.90;;;;;;5053749;28;19928;-62
2023/01/06 04:49:22;;;;;;;;;;;9.70;99.90;;;;;;5053811;28;19925;-61
2023/01/06 04:51:48;;;;;;;;;;;9.70;99.90;;;;;;5053737;28;20342;-62
2023/01/06 04:54:15;;;;;;;;;;;9.70;99.90;;;;;;5062766;28;20388;-62
2023/01/06 04:56:42;;;;;;;;;;;9.80;99.90;;;;;;5073729;28;19974;-60
2023/01/06 04:59:09;;;;;;;;;;;9.70;99.90;;;;;;5073454;28;20349;-61
2023/01/06 05:01:36;;;;;;;;;;;9.70;99.90;;;;;;5073420;28;20379;-61
2023/01/06 05:04:04;;;;;;;;;;;9.80;99.90;;;;;;5074397;28;19966;-61
2023/01/06 05:06:31;;;;;;;;;;;9.70;99.90;;;;;;5074225;28;19921;-57
2023/01/06 05:08:58;;;;;;;;;;;9.70;99.90;;;;;;5075149;28;19920;-61
2023/01/06 05:11:25;;;;;;;;;;;9.70;99.90;;;;;;5074467;28;19924;-61
2023/01/06 05:13:52;;;;;;;;;;;9.80;99.90;;;;;;5074595;28;19924;-62
2023/01/06 05:16:20;;;;;;;;;;;9.80;99.90;;;;;;5073706;28;19932;-60
2023/01/06 05:18:48;;;;;;;;;;;9.80;99.90;;;;;;5073518;28;19920;-61
2023/01/06 05:21:15;;;;;;;;;;;9.80;99.90;;;;;;5073986;28;19928;-61
2023/01/06 05:23:41;;;;;;;;;;;9.80;99.90;;;;;;5066080;28;19924;-61
2023/01/06 05:26:09;;;;;;;;;;;9.70;99.90;;;;;;5058018;28;20371;-62
2023/01/06 05:28:36;;;;;;;;;;;9.70;99.90;;;;;;5053825;28;19921;-60
2023/01/06 05:31:03;;;;;;;;;;;9.80;99.90;;;;;;5052910;28;19924;-62
2023/01/06 05:33:30;;;;;;;;;;;9.80;99.90;;;;;;5052618;28;19974;-62
2023/01/06 05:35:59;;;;;;;;;;;9.80;99.90;;;;;;5052496;28;19928;-62
2023/01/06 05:38:25;;;;;;;;;;;9.80;99.90;;;;;;5052983;28;19921;-63
2023/01/06 05:40:52;;;;;;;;;;;9.80;99.90;;;;;;5052880;28;19924;-62
2023/01/06 05:43:19;;;;;;;;;;;9.80;99.90;;;;;;5052642;28;19975;-62
2023/01/06 05:45:45;;;;;;;;;;;9.80;99.90;;;;;;5052781;28;19967;-62
2023/01/06 05:48:12;;;;;;;;;;;9.80;99.90;;;;;;5052707;28;20289;-62
2023/01/06 05:50:39;;;;;;;;;;;9.80;99.90;;;;;;5052510;28;19921;-63
2023/01/06 05:53:08;;;;;;;;;;;9.80;99.90;;;;;;5060485;28;19920;-63
2023/01/06 05:55:34;;;;;;;;;;;9.80;99.90;;;;;;5055899;28;19931;-62
2023/01/06 05:58:01;;;;;;;;;;;9.80;99.90;;;;;;5063053;28;19924;-63
2023/01/06 06:00:27;;;;;;;;;;;9.80;99.90;;;;;;5066488;28;19920;-62
2023/01/06 06:02:55;;;;;;;;;;;9.80;99.90;;;;;;5059951;28;19928;-62
2023/01/06 06:05:21;;;;;;;;;;;9.80;99.90;;;;;;5068291;28;19921;-62
2023/01/06 06:07:52;;;;;;;;;;;9.80;99.90;;;;;;5060098;28;19920;-62
2023/01/06 06:10:20;;;;;;;;;;;9.80;99.90;;;;;;5059794;28;19928;-62
2023/01/06 06:12:46;;;;;;;;;;;9.80;99.90;;;;;;5052264;28;19924;-62
2023/01/06 06:15:13;;;;;;;;;;;9.80;99.90;;;;;;5051914;28;19990;-62
2023/01/06 06:17:39;;;;;;;;;;;9.80;99.90;;;;;;5056008;28;19974;-63
2023/01/06 06:20:06;;;;;;;;;;;9.80;99.90;;;;;;5063271;28;19927;-64
2023/01/06 06:22:33;;;;;;;;;;;9.80;99.90;;;;;;5068313;28;20346;-62
2023/01/06 06:24:59;;;;;;;;;;;9.80;99.90;;;;;;5060067;28;19951;-67
2023/01/06 06:27:27;;;;;;;;;;;9.80;99.90;;;;;;5051647;28;19921;-66
2023/01/06 06:29:54;;;;;;;;;;;9.80;99.90;;;;;;5052223;28;19979;-67
2023/01/06 06:32:20;;;;;;;;;;;9.80;99.90;;;;;;5055988;28;20974;-68
2023/01/06 06:34:47;;;;;;;;;;;9.80;99.90;;;;;;5055373;28;19921;-68
2023/01/06 06:37:13;;;;;;;;;;;9.90;99.90;;;;;;5059154;28;19931;-68
2023/01/06 06:39:40;;;;;;;;;;;9.90;99.90;;;;;;5059583;28;19974;-68
2023/01/06 06:42:07;;;;;;;;;;;9.80;99.90;;;;;;5067348;28;19920;-64
2023/01/06 06:44:34;;;;;;;;;;;9.80;99.90;;;;;;5071235;28;19974;-64
2023/01/06 06:47:01;;;;;;;;;;;9.80;99.90;;;;;;5075178;28;19920;-64
2023/01/06 06:49:27;;;;;;;;;;;9.80;99.90;;;;;;5075050;28;19965;-63
2023/01/06 06:51:54;;;;;;;;;;;9.80;99.90;;;;;;5075216;28;19924;-62
2023/01/06 06:54:20;;;;;;;;;;;9.80;99.90;;;;;;5064923;28;19924;-64
2023/01/06 06:56:47;;;;;;;;;;;9.80;99.90;;;;;;5055101;28;19931;-64
2023/01/06 06:59:14;;;;;;;;;;;9.80;99.90;;;;;;5054907;28;19924;-67
2023/01/06 07:01:42;;;;;;;;;;;9.80;99.90;;;;;;5055393;28;19935;-67
2023/01/06 07:04:09;;;;;;;;;;;9.90;99.90;;;;;;5056625;28;19924;-67
2023/01/06 07:06:35;;;;;;;;;;;9.90;99.90;;;;;;5058147;28;19921;-67
2023/01/06 07:09:02;;;;;;;;;;;9.80;99.90;;;;;;5066740;28;19921;-67
2023/01/06 07:11:28;;;;;;;;;;;9.80;99.90;;;;;;5055160;28;19921;-67
2023/01/06 07:13:55;;;;;;;;;;;9.80;99.90;;;;;;5062667;28;19920;-67
2023/01/06 07:16:25;;;;;;;;;;;9.80;99.90;;;;;;5072832;28;19967;-68
2023/01/06 07:18:54;;;;;;;;;;;9.70;99.90;;;;;;5074542;28;20355;-68
2023/01/06 07:21:21;;;;;;;;;;;9.80;99.90;;;;;;5074074;28;19920;-68
2023/01/06 07:23:48;;;;;;;;;;;9.80;99.90;;;;;;5066245;28;19924;-67
2023/01/06 07:26:16;;;;;;;;;;;9.80;99.90;;;;;;5057188;28;19921;-67
2023/01/06 07:28:43;;;;;;;;;;;9.80;99.90;;;;;;5054212;28;19940;-67
2023/01/06 07:31:09;;;;;;;;;;;9.80;99.90;;;;;;5054623;28;19925;-66
2023/01/06 07:33:36;;;;;;;;;;;9.90;99.90;;;;;;5053977;28;19964;-67
2023/01/06 07:36:04;;;;;;;;;;;9.90;99.90;;;;;;5054514;28;20338;-65
2023/01/06 07:38:31;;;;;;;;;;;9.90;99.90;;;;;;5054160;28;20269;-67
2023/01/06 07:41:01;;;;;;;;;;;9.90;99.90;;;;;;5054471;28;20456;-65
2023/01/06 07:43:27;;;;;;;;;;;9.90;99.90;;;;;;5056594;28;19920;-67
2023/01/06 07:45:54;;;;;;;;;;;9.90;99.90;;;;;;5065456;28;19924;-67
2023/01/06 07:48:20;;;;;;;;;;;9.90;99.90;;;;;;5074331;28;20345;-67
2023/01/06 07:50:57;;;;;;;;;;;9.90;99.90;;;;;;5073970;28;20333;-67
2023/01/06 07:53:25;;;;;;;;;;;9.90;99.90;;;;;;5066051;28;19925;-68
2023/01/06 07:55:56;;;;;;;;;;;9.90;99.90;;;;;;5059707;28;19990;-68
2023/01/06 07:58:23;;;;;;;;;;;9.90;99.90;;;;;;5058084;28;19920;-69
2023/01/06 08:00:50;;;;;;;;;;;10.00;99.90;;;;;;5059378;28;20291;-65
2023/01/06 08:03:16;;;;;;;;;;;10.00;99.90;;;;;;5053716;28;19920;-64
2023/01/06 08:05:43;;;;;;;;;;;10.00;99.90;;;;;;5061110;28;19974;-64
2023/01/06 08:08:10;;;;;;;;;;;10.00;99.90;;;;;;5069901;28;19973;-64
2023/01/06 08:10:39;;;;;;;;;;;10.00;99.90;;;;;;5073683;28;19927;-64
2023/01/06 08:13:06;;;;;;;;;;;10.00;99.90;;;;;;5073031;28;20357;-65
2023/01/06 08:15:33;;;;;;;;;;;10.00;99.90;;;;;;5074187;28;20334;-65
2023/01/06 08:17:59;;;;;;;;;;;10.10;99.90;;;;;;5073070;28;19932;-64
2023/01/06 08:20:26;;;;;;;;;;;10.00;99.90;;;;;;5054485;28;19943;-64
2023/01/06 08:22:52;;;;;;;;;;;10.10;99.90;;;;;;5052944;28;20358;-64
2023/01/06 08:25:19;;;;;;;;;;;10.10;99.90;;;;;;5053203;28;19928;-64
2023/01/06 08:27:47;;;;;;;;;;;10.10;99.90;;;;;;5053177;28;19928;-65
2023/01/06 08:30:18;;;;;;;;;;;10.10;99.90;;;;;;5052996;28;19920;-66
2023/01/06 08:32:45;;;;;;;;;;;10.10;99.90;;;;;;5053205;28;20434;-65
2023/01/06 08:35:11;;;;;;;;;;;10.10;99.90;;;;;;5060719;28;19920;-66
2023/01/06 08:37:38;;;;;;;;;;;10.10;99.90;;;;;;5065461;28;19924;-65
2023/01/06 08:40:05;;;;;;;;;;;10.10;99.90;;;;;;5072698;28;19924;-66
2023/01/06 08:42:32;;;;;;;;;;;10.10;99.90;;;;;;5061454;28;19924;-65
2023/01/06 08:45:00;;;;;;;;;;;10.10;99.90;;;;;;5053099;28;19932;-65
2023/01/06 08:47:26;;;;;;;;;;;10.00;99.90;;;;;;5052986;28;20410;-62
2023/01/06 08:49:53;;;;;;;;;;;10.00;99.90;;;;;;5053596;28;19921;-62
2023/01/06 08:52:19;;;;;;;;;;;10.00;99.90;;;;;;5054492;28;19920;-62
2023/01/06 08:54:46;;;;;;;;;;;10.00;99.90;;;;;;5064656;28;20651;-63
2023/01/06 08:57:14;;;;;;;;;;;9.90;99.90;;;;;;5072222;28;19924;-61
2023/01/06 08:59:41;;;;;;;;;;;9.90;99.90;;;;;;5061443;28;20003;-62
2023/01/06 09:02:10;;;;;;;;;;;9.90;99.90;;;;;;5052757;28;19924;-61
2023/01/06 09:04:36;;;;;;;;;;;9.90;99.90;;;;;;5052671;28;19925;-63
2023/01/06 09:07:03;;;;;;;;;;;9.90;99.90;;;;;;5052521;28;19921;-63
2023/01/06 09:09:30;;;;;;;;;;;9.90;99.90;;;;;;5051075;28;20497;-65
2023/01/06 09:11:56;;;;;;;;;;;9.90;99.90;;;;;;5052758;28;19925;-64
2023/01/06 09:14:23;;;;;;;;;;;9.90;99.90;;;;;;5052089;28;19959;-65
2023/01/06 09:16:49;;;;;;;;;;;9.90;99.90;;;;;;5052789;28;19925;-65
2023/01/06 09:19:19;;;;;;;;;;;9.90;99.90;;;;;;5052516;28;20354;-65
2023/01/06 09:21:45;;;;;;;;;;;9.90;99.90;;;;;;5032905;28;19935;-64
2023/01/06 09:24:12;;;;;;;;;;;10.00;99.90;;;;;;5040963;28;19929;-66
2023/01/06 09:26:39;;;;;;;;;;;9.90;99.90;;;;;;5052158;28;19921;-65
2023/01/06 09:29:06;;;;;;;;;;;9.90;99.90;;;;;;5052425;28;19920;-65
2023/01/06 09:31:32;;;;;;;;;;;9.90;99.90;;;;;;5052213;28;19921;-64
2023/01/06 09:33:59;;;;;;;;;;;9.90;99.90;;;;;;5052375;28;19921;-64
2023/01/06 09:36:27;;;;;;;;;;;9.90;99.90;;;;;;5051552;28;19929;-62
2023/01/06 09:38:53;;;;;;;;;;;10.00;99.90;;;;;;5052417;28;19924;-62
2023/01/06 09:41:37;;;;;;;;;;;10.00;99.90;;;;;;5051897;28;19921;-62
2023/01/06 09:44:06;;;;;;;;;;;9.90;99.90;;;;;;5041444;28;19967;-68
2023/01/06 09:46:35;;;;;;;;;;;9.90;99.90;;;;;;5051952;28;19982;-59
2023/01/06 09:49:07;;;;;;;;;;;10.00;99.90;;;;;;5051420;28;19927;-62
2023/01/06 09:51:35;;;;;;;;;;;10.00;99.90;;;;;;5052323;28;20020;-61
2023/01/06 09:54:05;;;;;;;;;;;10.00;99.90;;;;;;5042981;28;19921;-58
2023/01/06 09:56:32;;;;;;;;;;;9.90;99.90;;;;;;5032201;28;19975;-61
2023/01/06 09:59:04;;;;;;;;;;;9.90;99.90;;;;;;5039847;28;20386;-63
2023/01/06 10:01:34;;;;;;;;;;;9.90;99.90;;;;;;5051432;28;19955;-63
2023/01/06 10:04:01;;;;;;;;;;;9.80;99.90;;;;;;5051278;28;20002;-64
2023/01/06 10:06:30;;;;;;;;;;;9.80;99.90;;;;;;5040930;28;20130;-63
2023/01/06 10:09:01;;;;;;;;;;;9.80;99.90;;;;;;5032134;28;19925;-63
2023/01/06 10:11:33;;;;;;;;;;;9.80;99.90;;;;;;5031866;28;19975;-63
2023/01/06 10:14:04;;;;;;;;;;;9.80;99.90;;;;;;5031481;28;19932;-66
2023/01/06 10:16:37;;;;;;;;;;;9.80;99.90;;;;;;5030538;28;19925;-66
2023/01/06 10:19:11;;;;;;;;;;;9.70;99.90;;;;;;5032560;28;19947;-66
2023/01/06 10:21:41;;;;;;;;;;;9.80;99.90;;;;;;5035252;28;19947;-65
2023/01/06 10:24:14;;;;;;;;;;;9.70;99.90;;;;;;5043174;28;19925;-66
2023/01/06 10:26:43;;;;;;;;;;;9.80;99.90;;;;;;5011299;28;19921;-65
2023/01/06 10:29:12;;;;;;;;;;;9.80;99.90;;;;;;5020367;28;19965;-65
2023/01/06 10:31:41;;;;;;;;;;;9.80;99.90;;;;;;5031035;28;19928;-64
2023/01/06 10:34:12;;;;;;;;;;;9.80;99.90;;;;;;5038652;28;20019;-64
2023/01/06 10:36:41;;;;;;;;;;;9.80;99.90;;;;;;5023393;28;19972;-65
2023/01/06 10:39:13;;;;;;;;;;;9.80;99.90;;;;;;5030874;28;20531;-66
2023/01/06 10:41:45;;;;;;;;;;;9.80;99.90;;;;;;5012080;28;19922;-66
2023/01/06 10:44:12;;;;;;;;;;;9.80;99.90;;;;;;5010913;28;19921;-66
2023/01/06 10:46:44;;;;;;;;;;;9.80;99.90;;;;;;5011298;28;19925;-65
2023/01/06 10:49:14;;;;;;;;;;;9.90;99.90;;;;;;5011068;28;19977;-65
2023/01/06 10:51:43;;;;;;;;;;;9.90;99.90;;;;;;5011593;28;19921;-65
2023/01/06 10:54:11;;;;;;;;;;;9.90;99.90;;;;;;5035401;28;19928;-64
2023/01/06 10:56:39;;;;;;;;;;;10.00;99.90;;;;;;5051215;28;20319;-64
2023/01/06 10:59:09;;;;;;;;;;;10.00;99.90;;;;;;5043137;28;19924;-64
2023/01/06 11:01:37;;;;;;;;;;;10.00;99.90;;;;;;5011115;28;20270;-64
2023/01/06 11:04:05;;;;;;;;;;;10.00;99.90;;;;;;5010832;28;19944;-65
2023/01/06 11:06:32;;;;;;;;;;;10.00;99.90;;;;;;5010654;28;20372;-65
2023/01/06 11:08:59;;;;;;;;;;;10.00;99.90;;;;;;5012817;28;19972;-65
2023/01/06 11:11:25;;;;;;;;;;;10.10;99.90;;;;;;5041046;28;19921;-64
2023/01/06 11:13:54;;;;;;;;;;;10.10;99.90;;;;;;5051094;28;19924;-63
2023/01/06 11:16:24;;;;;;;;;;;10.10;99.90;;;;;;5050617;28;20338;-63
2023/01/06 11:18:54;;;;;;;;;;;10.10;99.90;;;;;;5051424;28;19921;-65
2023/01/06 11:21:20;;;;;;;;;;;10.20;99.90;;;;;;5051181;28;20287;-62
2023/01/06 11:23:47;;;;;;;;;;;10.30;99.90;;;;;;5042102;28;19960;-63
2023/01/06 11:26:15;;;;;;;;;;;10.30;99.90;;;;;;5033579;28;19995;-66
2023/01/06 11:28:43;;;;;;;;;;;10.30;99.90;;;;;;5031363;28;19921;-65
2023/01/06 11:31:11;;;;;;;;;;;10.40;99.90;;;;;;5030762;28;19943;-65
2023/01/06 11:33:46;;;;;;;;;;;10.40;99.90;;;;;;5033445;28;19921;-65
2023/01/06 11:36:14;;;;;;;;;;;10.50;99.90;;;;;;5034236;28;20019;-65
2023/01/06 11:38:43;;;;;;;;;;;10.50;99.90;;;;;;5034070;28;19921;-70
2023/01/06 11:41:11;;;;;;;;;;;10.50;99.90;;;;;;5034476;28;19948;-63
2023/01/06 11:43:38;;;;;;;;;;;10.60;99.90;;;;;;5037179;28;19925;-64
2023/01/06 11:46:06;;;;;;;;;;;10.70;99.90;;;;;;5033454;28;19927;-64
2023/01/06 11:48:34;;;;;;;;;;;10.70;99.90;;;;;;5034652;28;19956;-64
2023/01/06 11:51:03;;;;;;;;;;;10.70;99.90;;;;;;5034074;28;19925;-65
2023/01/06 11:53:30;;;;;;;;;;;10.80;99.90;;;;;;5042207;28;20055;-65
2023/01/06 11:56:01;;;;;;;;;;;10.90;99.90;;;;;;5048191;28;19931;-62
2023/01/06 11:58:40;;;;;;;;;;;11.00;99.90;;;;;;5054005;28;20451;-68
2023/01/06 12:01:08;;;;;;;;;;;11.00;99.90;;;;;;5037675;28;19924;-67
2023/01/06 12:03:40;;;;;;;;;;;11.00;99.90;;;;;;5033800;28;19928;-67
2023/01/06 12:06:14;;;;;;;;;;;11.10;99.90;;;;;;5033865;28;19967;-66
2023/01/06 12:08:43;;;;;;;;;;;11.20;99.90;;;;;;5033729;28;19921;-67
2023/01/06 12:11:13;;;;;;;;;;;11.30;99.90;;;;;;5033860;28;19921;-67
2023/01/06 12:13:39;;;;;;;;;;;11.30;99.90;;;;;;5032695;28;19928;-67
2023/01/06 12:16:11;;;;;;;;;;;11.30;99.90;;;;;;5033715;28;19967;-70
2023/01/06 12:18:39;;;;;;;;;;;11.30;99.90;;;;;;5033301;28;19932;-65
2023/01/06 12:21:05;;;;;;;;;;;11.30;99.90;;;;;;5033490;28;19928;-66
2023/01/06 12:23:34;;;;;;;;;;;11.20;99.90;;;;;;5041272;28;19925;-65
2023/01/06 12:26:02;;;;;;;;;;;11.30;99.90;;;;;;5048779;28;19921;-65
2023/01/06 12:28:31;;;;;;;;;;;11.50;99.90;;;;;;5053635;28;19947;-68
2023/01/06 12:31:01;;;;;;;;;;;11.70;99.90;;;;;;5053079;28;19932;-68
2023/01/06 12:33:30;;;;;;;;;;;11.80;99.90;;;;;;5050779;28;19952;-68
2023/01/06 12:35:59;;;;;;;;;;;11.70;99.90;;;;;;5032558;28;20357;-66
2023/01/06 12:38:33;;;;;;;;;;;11.60;99.90;;;;;;5033296;28;19925;-66
2023/01/06 12:41:03;;;;;;;;;;;11.50;99.90;;;;;;5032505;28;19924;-66
2023/01/06 12:43:31;;;;;;;;;;;11.50;99.90;;;;;;5033090;28;19928;-65
2023/01/06 12:46:01;;;;;;;;;;;11.50;99.90;;;;;;5032286;28;19952;-65
2023/01/06 12:48:33;;;;;;;;;;;11.60;99.90;;;;;;5033133;28;19925;-63
2023/01/06 12:51:03;;;;;;;;;;;11.70;99.90;;;;;;5033147;28;19931;-65
2023/01/06 12:53:32;;;;;;;;;;;11.70;99.90;;;;;;5043189;28;20434;-65
2023/01/06 12:56:10;;;;;;;;;;;11.60;99.90;;;;;;5037951;28;20264;-64
2023/01/06 12:58:43;;;;;;;;;;;11.60;99.90;;;;;;5032528;28;19925;-65
2023/01/06 13:01:13;;;;;;;;;;;11.50;99.90;;;;;;5033010;28;19928;-65
2023/01/06 13:04:13;;;;;;;;;;;11.50;99.90;;;;;;5032174;28;20350;-63
2023/01/06 13:06:54;;;;;;;;;;;11.50;99.90;;;;;;4971093;28;19985;-60
2023/01/06 13:09:27;;;;;;;;;;;11.60;99.90;;;;;;4968713;28;19926;-64
2023/01/06 13:12:06;;;;;;;;;;;11.60;99.90;;;;;;5015070;28;19928;-64
2023/01/06 13:14:38;;;;;;;;;;;11.50;99.90;;;;;;5051341;28;19924;-62
2023/01/06 13:17:08;;;;;;;;;;;11.50;99.90;;;;;;5052575;28;19921;-63
2023/01/06 13:19:41;;;;;;;;;;;11.40;99.90;;;;;;5051609;28;19947;-61
2023/01/06 13:22:10;;;;;;;;;;;11.40;99.90;;;;;;5052902;28;19928;-62
2023/01/06 13:24:50;;;;;;;;;;;11.40;99.90;;;;;;5031651;28;19924;-64
2023/01/06 13:27:31;;;;;;;;;;;11.40;99.90;;;;;;5041239;28;19921;-64
2023/01/06 13:30:05;;;;;;;;;;;11.50;99.90;;;;;;5052227;28;20454;-64
2023/01/06 13:32:41;;;;;;;;;;;11.70;99.90;;;;;;5052126;28;19967;-63
2023/01/06 13:35:17;;;;;;;;;;;11.80;99.90;;;;;;5051995;28;19921;-64
2023/01/06 13:37:50;;;;;;;;;;;11.80;99.90;;;;;;5051613;28;19921;-64
2023/01/06 13:40:18;;;;;;;;;;;11.70;99.90;;;;;;5052297;28;20288;-65
2023/01/06 13:42:47;;;;;;;;;;;11.60;99.90;;;;;;5051894;28;19926;-64
2023/01/06 13:45:17;;;;;;;;;;;11.60;99.90;;;;;;5051718;28;19943;-66
2023/01/06 13:47:44;;;;;;;;;;;11.50;99.90;;;;;;5051743;28;19982;-65
2023/01/06 13:50:12;;;;;;;;;;;11.40;99.90;;;;;;5051984;28;19924;-66
2023/01/06 13:52:39;;;;;;;;;;;11.30;99.90;;;;;;5047584;28;20043;-66
2023/01/06 13:55:21;;;;;;;;;;;11.30;99.90;;;;;;5038464;28;19928;-65
2023/01/06 13:57:47;;;;;;;;;;;11.30;99.90;;;;;;5031888;28;19976;-66
2023/01/06 14:00:17;;;;;;;;;;;11.20;99.90;;;;;;5031268;28;19925;-66
2023/01/06 14:03:02;;;;;;;;;;;11.20;99.90;;;;;;5031593;28;19929;-66
2023/01/06 14:05:48;;;;;;;;;;;11.20;99.90;;;;;;5031127;28;19921;-65
2023/01/06 14:08:16;;;;;;;;;;;11.10;99.90;;;;;;5031605;28;19921;-65
2023/01/06 14:10:43;;;;;;;;;;;11.10;99.90;;;;;;5031121;28;20331;-66
2023/01/06 14:13:18;;;;;;;;;;;11.00;99.90;;;;;;5031583;28;20300;-64
2023/01/06 14:15:54;;;;;;;;;;;11.00;99.90;;;;;;5030845;28;19921;-66
2023/01/06 14:18:29;;;;;;;;;;;11.00;99.90;;;;;;5032080;28;20040;-63
2023/01/06 14:20:59;;;;;;;;;;;11.00;99.90;;;;;;5031236;28;19944;-64
2023/01/06 14:23:26;;;;;;;;;;;10.90;99.90;;;;;;5039551;28;20359;-63
2023/01/06 14:25:54;;;;;;;;;;;10.90;99.90;;;;;;5045169;28;20387;-63
2023/01/06 14:28:26;;;;;;;;;;;10.90;99.90;;;;;;5050989;28;19927;-63
2023/01/06 14:31:07;;;;;;;;;;;10.90;99.90;;;;;;5049930;28;19920;-63
2023/01/06 14:33:37;;;;;;;;;;;10.80;99.90;;;;;;5031708;28;19975;-63
2023/01/06 14:36:06;;;;;;;;;;;10.80;99.90;;;;;;5039095;28;19921;-64
2023/01/06 14:38:36;;;;;;;;;;;10.80;99.90;;;;;;5030860;28;19921;-64